LHBP Airport Information

Runway Information
Runway 13L Length 12162 ft width 149 ft
Elevation 495 ft Threshold 0 ft Heading 132
Runway 31R Length 12162 ft Width 149 ft
Elevation 417 ft Threshold 0 ft Heading 312
Runway 13R Length 9875 ft width 149 ft
Elevation 450 ft Threshold 0 ft Heading 132
Runway 31L Length 9875 ft Width 149 ft
Elevation 450 ft Threshold 0 ft Heading 312
Airport Frequencies
Type ACC Name BUDAPEST A Frequency 129.7 MHZ
Type APP Name DIRECTOR Frequency 119.5 MHZ
Type APRS Name Apron Guid Frequency 122.45 MHZ
Type APRW Name Apron Guid Frequency 131.55 MHZ
Type ATIS Name ATIS Frequency 132.375 MHZ
Type CDC Name Delivery Frequency 134.55 MHZ
Type GND Name GND Frequency 121.9 MHZ
Type TWR Name TWR Frequency 118.1 MHZ
Airport Navaids
Type VOR-DME Name Budapest Frequency 117300 KHZ
Type VOR-DME Name Monor Frequency 112500 KHZ
Type NDB Name Monor Frequency 288 KHZ
Type VOR-DME Name Tapiosap Frequency 115900 KHZ
Type NDB Name Tapiosap Frequency 306 KHZ
Airport Weather Information & NOTAM
ADDS - METARS form results

(0024 UTC 25 March 2019)
Data provider http://aviationweather.gov/metar/data/
 
METAR text: LHBP 250007Z 29009KT CAVOK 12/12 Q1014 NOSIG
Conditions at: LHBP (BUDAPEST/FERIHEG, HU) observed 0007 UTC 25 March 2019
Temperature: 12.0°C (54°F)
Dewpoint: 12.0°C (54°F) [RH = 100%]
Pressure (altimeter): 29.94 inches Hg (1014.0 mb)
Winds: from the WNW (290 degrees) at 10 MPH (9 knots; 4.6 m/s)
Visibility: 6 or more miles (10+ km)
Ceiling: ceiling and visibility are OK
Clouds: unknown
Weather: no significant weather observed at this time

METAR text: LHBP 250000Z VRB02KT CAVOK 10/09 Q1014 NOSIG
Conditions at: LHBP (BUDAPEST/FERIHEG, HU) observed 0000 UTC 25 March 2019
Temperature: 10.0°C (50°F)
Dewpoint: 9.0°C (48°F) [RH = 93%]
Pressure (altimeter): 29.94 inches Hg (1014.0 mb)
Winds: variable direction winds at 2 MPH (2 knots; 1.0 m/s)
Visibility: 6 or more miles (10+ km)
Ceiling: ceiling and visibility are OK
Clouds: unknown
Weather: no significant weather observed at this time

METAR text: LHBP 242330Z VRB01KT CAVOK 10/09 Q1014 NOSIG
Conditions at: LHBP (BUDAPEST/FERIHEG, HU) observed 2330 UTC 24 March 2019
Temperature: 10.0°C (50°F)
Dewpoint: 9.0°C (48°F) [RH = 93%]
Pressure (altimeter): 29.94 inches Hg (1014.0 mb)
Winds: variable direction winds at 1 MPH (1 knots; 0.5 m/s)
Visibility: 6 or more miles (10+ km)
Ceiling: ceiling and visibility are OK
Clouds: unknown
Weather: no significant weather observed at this time

Forecast for: LHBP (BUDAPEST/FERIHEG, HU)
Text: TAF LHBP 242315Z 2500/2524 VRB03KT CAVOK
Forecast period: 0000 to 0100 UTC 25 March 2019
Forecast type: FROM: standard forecast or significant change
Winds: variable direction winds at 3 MPH (3 knots; 1.5 m/s)
Visibility: 6 or more miles 10+ km)
Ceiling: unknown
Clouds: missing
Weather: NSW  (no significant weather)
Text: TEMPO 2500/2502 -SHRA SCT035 BKN075
Forecast period: 0000 to 0200 UTC 25 March 2019
Forecast type: TEMPORARY: The following changes expected for less than half the time period
Visibility: missing
Ceiling: 7500 feet AGL
Clouds: scattered clouds at 3500 feet AGL
broken clouds at 7500 feet AGL
Weather: -SHRA  (light rain showers)
Text: BECMG 2501/2503 31009KT
Forecast period: 0100 to 0800 UTC 25 March 2019
Forecast type: BECOMING: Conditions expected to become as follows by 0300 UTC 25 March 2019
Winds: from the NW (310 degrees) at 10 MPH (9 knots; 4.6 m/s)
Visibility: 6 or more miles 10+ km)
Ceiling: unknown
Clouds: missing
Weather: NSW  (no significant weather)
Text: BECMG 2508/2510 32012G23KT
Forecast period: 0800 UTC 25 March 2019 to 0000 UTC 26 March 2019
Forecast type: BECOMING: Conditions expected to become as follows by 1000 UTC 25 March 2019
Winds: from the NW (320 degrees) at 14 MPH (12 knots; 6.2 m/s)
gusting to 26 MPH (23 knots; 11.8 m/s)
Visibility: 6 or more miles 10+ km)
Ceiling: unknown
Clouds: missing
Weather: NSW  (no significant weather)
Text: TEMPO 2508/2512 SCT035
Forecast period: 0800 to 1200 UTC 25 March 2019
Forecast type: TEMPORARY: The following changes expected for less than half the time period
Visibility: missing
Ceiling: at least 12,000 feet AGL
Clouds: scattered clouds at 3500 feet AGL
Weather: no significant weather forecast for this period